Terminal Aerodrome Forecast
Issued by NWS Tallahassee, FL

Home | Current Version | Previous Version | Text Only | Print | Product List | Glossary On
Versions: 1 2 3 4 5 6 7 8 9 10 11 12
000
FTUS42 KTAE 191100
TAFTLH
TAF
KTLH 191124Z 1912/2012 35003KT P6SM BKN250
     FM191500 04005KT P6SM BKN050 OVC100
     FM191900 03007KT 5SM -RA OVC040
     FM200200 08003KT P6SM VCSH SCT050 OVC120=

USA.gov is the U.S. government's official web portal to all federal, state and local government web resources and services.